Time;durP1;ratioP1;P1;durP2;ratioP2;P2;SDS_P1;SDS_P2;PMS_P1;PMS_P2;Temp;Humidity;BMP_temperature;BMP_pressure;BME280_temperature;BME280_humidity;BME280_pressure;Samples;Min_cycle;Max_cycle;Signal;HPM_P1;HPM_P2
2023/10/12 00:01:39;;;;;;;4.50;3.33;;;;;;;8.09;100.00;93896.78;5061006;28;20048;-73
2023/10/12 00:04:12;;;;;;;5.60;3.65;;;;;;;8.11;100.00;93899.94;5063707;28;20079;-73
2023/10/12 00:06:43;;;;;;;5.78;3.38;;;;;;;8.03;100.00;93889.81;5063590;28;20048;-73
2023/10/12 00:09:17;;;;;;;5.47;3.90;;;;;;;8.02;100.00;93893.34;5060060;28;20044;-73
2023/10/12 00:11:55;;;;;;;5.53;3.30;;;;;;;7.99;100.00;93894.50;5066659;28;20052;-73
2023/10/12 00:14:23;;;;;;;4.60;3.30;;;;;;;8.00;100.00;93893.50;5062043;28;20051;-73
2023/10/12 00:16:52;;;;;;;6.03;3.95;;;;;;;7.98;100.00;93892.09;5066524;28;20138;-73
2023/10/12 00:19:20;;;;;;;6.97;3.50;;;;;;;7.98;100.00;93886.97;5066528;28;20056;-73
2023/10/12 00:21:47;;;;;;;5.40;3.75;;;;;;;7.95;100.00;93879.66;5066243;28;20071;-73
2023/10/12 00:24:17;;;;;;;4.78;3.30;;;;;;;7.87;100.00;93878.00;5065739;28;20142;-73
2023/10/12 00:26:45;;;;;;;7.80;3.75;;;;;;;7.86;100.00;93881.50;5066853;28;20080;-73
2023/10/12 00:29:12;;;;;;;5.68;3.25;;;;;;;7.82;100.00;93875.16;5066023;28;20052;-73
2023/10/12 00:31:42;;;;;;;5.13;3.35;;;;;;;7.82;100.00;93870.06;5061929;28;20132;-73
2023/10/12 00:34:10;;;;;;;7.45;3.80;;;;;;;7.70;100.00;93862.81;5065414;28;20118;-73
2023/10/12 00:36:39;;;;;;;5.00;3.50;;;;;;;7.77;100.00;93874.91;5065506;28;20068;-73
2023/10/12 00:39:09;;;;;;;7.30;3.42;;;;;;;7.73;100.00;93877.03;5063271;28;20153;-73
2023/10/12 00:41:37;;;;;;;6.55;3.85;;;;;;;7.46;100.00;93835.72;5059560;28;20152;-73
2023/10/12 00:44:11;;;;;;;5.47;3.40;;;;;;;7.75;100.00;93870.75;5059064;28;20092;-73
2023/10/12 00:46:58;;;;;;;5.82;3.63;;;;;;;7.73;100.00;93869.34;5063765;28;20044;-73
2023/10/12 00:49:28;;;;;;;5.20;4.10;;;;;;;7.75;100.00;93860.53;5061099;28;20102;-73
2023/10/12 00:52:08;;;;;;;4.97;3.55;;;;;;;7.65;100.00;93869.41;5065289;28;20052;-73
2023/10/12 00:54:43;;;;;;;5.63;3.35;;;;;;;7.71;100.00;93874.63;5062070;28;20468;-73
2023/10/12 00:57:10;;;;;;;9.68;4.35;;;;;;;7.71;100.00;93872.06;5066474;28;20106;-73
2023/10/12 00:59:39;;;;;;;7.78;3.75;;;;;;;7.67;100.00;93865.72;5066242;28;20041;-72
2023/10/12 01:02:09;;;;;;;7.10;3.53;;;;;;;7.68;100.00;93863.97;5062451;28;20063;-73
2023/10/12 01:04:36;;;;;;;7.15;3.53;;;;;;;7.65;100.00;93866.84;5062951;28;20565;-73
2023/10/12 01:07:06;;;;;;;6.05;3.97;;;;;;;7.59;100.00;93863.25;5066165;28;20052;-74
2023/10/12 01:09:42;;;;;;;6.20;4.10;;;;;;;7.55;100.00;93865.34;5067746;28;20048;-74
2023/10/12 01:12:14;;;;;;;5.15;3.53;;;;;;;7.56;100.00;93861.03;5063440;28;20053;-74
2023/10/12 01:14:44;;;;;;;5.25;3.10;;;;;;;7.42;100.00;93837.03;5063324;28;20447;-74
2023/10/12 01:17:17;;;;;;;7.60;4.20;;;;;;;7.51;100.00;93856.44;5067628;28;20088;-74
2023/10/12 01:19:47;;;;;;;6.88;3.60;;;;;;;7.48;100.00;93849.13;5061825;28;20047;-74
2023/10/12 01:22:25;;;;;;;6.35;3.58;;;;;;;7.43;100.00;93844.53;5064125;28;20044;-74
2023/10/12 01:25:00;;;;;;;6.85;3.97;;;;;;;7.47;100.00;93853.44;5064688;28;20386;-74
2023/10/12 01:27:27;;;;;;;5.03;3.95;;;;;;;7.21;100.00;93820.59;5068774;28;20055;-75
2023/10/12 01:29:58;;;;;;;5.47;4.05;;;;;;;7.35;100.00;93845.41;5069255;28;20076;-75
2023/10/12 01:32:28;;;;;;;5.20;3.70;;;;;;;7.35;100.00;93852.25;5064406;28;20209;-75
2023/10/12 01:34:57;;;;;;;6.10;3.92;;;;;;;7.36;100.00;93848.72;5066668;28;20052;-75
2023/10/12 01:37:26;;;;;;;5.47;3.67;;;;;;;7.31;100.00;93854.38;5065690;28;20045;-75
2023/10/12 01:40:18;;;;;;;4.63;3.42;;;;;;;7.08;100.00;93809.22;5066844;28;20068;-75
2023/10/12 01:42:51;;;;;;;6.70;3.83;;;;;;;7.32;100.00;93843.19;5065826;28;20130;-75
2023/10/12 01:45:31;;;;;;;6.82;3.92;;;;;;;7.17;100.00;93840.59;5067209;28;20059;-75
2023/10/12 01:48:11;;;;;;;5.47;3.65;;;;;;;7.32;100.00;93848.28;5062899;28;20504;-74
2023/10/12 01:50:38;;;;;;;5.55;3.83;;;;;;;7.25;100.00;93849.97;5069247;28;20123;-74
2023/10/12 01:53:17;;;;;;;5.35;3.50;;;;;;;7.24;100.00;93850.94;5065622;28;20412;-74
2023/10/12 01:55:44;;;;;;;6.45;3.95;;;;;;;7.21;100.00;93848.69;5066174;28;20129;-74
2023/10/12 01:58:12;;;;;;;5.25;3.90;;;;;;;7.25;100.00;93855.06;5067066;28;20493;-74
2023/10/12 02:00:40;;;;;;;9.85;3.90;;;;;;;7.24;100.00;93858.59;5065702;28;20135;-75
2023/10/12 02:03:18;;;;;;;4.90;3.67;;;;;;;7.15;100.00;93850.19;5068404;28;20048;-75
2023/10/12 02:05:56;;;;;;;5.75;3.72;;;;;;;7.16;100.00;93850.97;5064054;28;20048;-75
2023/10/12 02:08:32;;;;;;;8.02;3.80;;;;;;;7.13;100.00;93849.56;5065312;28;20127;-75
2023/10/12 02:11:06;;;;;;;7.05;4.13;;;;;;;7.17;100.00;93858.47;5068869;28;20060;-75
2023/10/12 02:13:34;;;;;;;6.30;4.00;;;;;;;6.78;100.00;93806.59;5065342;28;20523;-75
2023/10/12 02:16:01;;;;;;;6.63;4.20;;;;;;;7.09;100.00;93859.34;5064745;28;20057;-74
2023/10/12 02:18:30;;;;;;;5.28;3.83;;;;;;;6.93;100.00;93836.47;5065443;28;20090;-74
2023/10/12 02:21:08;;;;;;;6.85;4.13;;;;;;;7.06;100.00;93857.13;5067449;28;20070;-74
2023/10/12 02:23:53;;;;;;;7.75;4.10;;;;;;;7.05;100.00;93859.84;5064367;28;20041;-74
2023/10/12 02:26:31;;;;;;;7.03;4.93;;;;;;;7.09;100.00;93856.78;5062640;28;20397;-74
2023/10/12 02:29:11;;;;;;;6.78;3.90;;;;;;;7.05;100.00;93868.31;5063690;28;20049;-74
2023/10/12 02:31:39;;;;;;;5.88;3.85;;;;;;;6.97;100.00;93863.25;5060232;28;20460;-74
2023/10/12 02:34:13;;;;;;;8.73;3.72;;;;;;;6.90;100.00;93852.16;5061649;28;20055;-74
2023/10/12 02:36:40;;;;;;;8.23;3.88;;;;;;;6.84;100.00;93848.50;5066178;28;20048;-74
2023/10/12 02:39:15;;;;;;;7.82;3.78;;;;;;;6.86;100.00;93856.00;5065193;28;20455;-73
2023/10/12 02:41:52;;;;;;;6.70;4.23;;;;;;;6.82;100.00;93851.22;5068123;28;20044;-73
2023/10/12 02:44:19;;;;;;;6.65;4.45;;;;;;;6.74;100.00;93847.94;5066301;28;20349;-74
2023/10/12 02:47:00;;;;;;;6.53;3.65;;;;;;;6.73;100.00;93851.44;5064337;28;20870;-75
2023/10/12 02:49:28;;;;;;;6.38;4.28;;;;;;;6.64;100.00;93848.16;5064726;28;20505;-75
2023/10/12 02:51:57;;;;;;;5.93;3.70;;;;;;;6.66;100.00;93849.59;5066116;28;20095;-74
2023/10/12 02:54:26;;;;;;;6.97;3.88;;;;;;;6.69;100.00;93853.56;5067540;28;20053;-74
2023/10/12 02:56:56;;;;;;;5.38;3.63;;;;;;;6.68;100.00;93844.31;5063279;28;20045;-74
2023/10/12 02:59:25;;;;;;;4.80;3.78;;;;;;;6.73;100.00;93846.34;5063132;28;20519;-74
2023/10/12 03:02:12;;;;;;;6.03;3.40;;;;;;;6.65;100.00;93827.56;5061393;28;20045;-74
2023/10/12 03:04:40;;;;;;;7.13;4.10;;;;;;;6.66;100.00;93833.47;5062234;28;20056;-74
2023/10/12 03:07:12;;;;;;;6.43;3.90;;;;;;;6.68;100.00;93842.53;5063885;28;20524;-74
2023/10/12 03:09:43;;;;;;;7.88;3.88;;;;;;;6.67;100.00;93838.41;5059879;28;20048;-74
2023/10/12 03:12:10;;;;;;;5.78;4.00;;;;;;;6.64;100.00;93838.75;5064780;28;20080;-74
2023/10/12 03:14:37;;;;;;;5.60;3.78;;;;;;;6.45;100.00;93818.75;5064188;28;20048;-74
2023/10/12 03:17:09;;;;;;;7.47;4.13;;;;;;;6.60;100.00;93826.47;5064963;28;20060;-76
2023/10/12 03:19:37;;;;;;;6.38;3.78;;;;;;;6.48;100.00;93803.13;5064314;28;20059;-76
2023/10/12 03:22:19;;;;;;;6.90;4.10;;;;;;;6.61;100.00;93831.41;5067285;28;20044;-75
2023/10/12 03:24:51;;;;;;;7.03;4.20;;;;;;;6.59;100.00;93832.56;5066887;28;20051;-74
2023/10/12 03:27:19;;;;;;;5.95;3.92;;;;;;;6.56;100.00;93836.25;5062573;28;20052;-73
2023/10/12 03:29:51;;;;;;;7.00;3.40;;;;;;;6.55;100.00;93832.91;5067423;28;20126;-74
2023/10/12 03:32:22;;;;;;;6.05;4.00;;;;;;;6.45;100.00;93818.75;5067177;28;20105;-73
2023/10/12 03:34:56;;;;;;;4.88;3.67;;;;;;;6.46;100.00;93826.25;5062628;28;20481;-74
2023/10/12 03:40:49;;;;;;;7.22;3.88;;;;;;;6.49;100.00;93835.34;5062816;28;20051;-73
2023/10/12 03:42:55;;;;;;;5.80;3.85;;;;;;;6.48;100.00;93844.72;5065280;28;20053;-73
2023/10/12 03:45:33;;;;;;;5.20;3.90;;;;;;;6.49;100.00;93840.44;5067354;28;20041;-73
2023/10/12 03:48:24;;;;;;;6.35;4.38;;;;;;;6.48;100.00;93842.19;5066129;28;20562;-73
2023/10/12 03:50:59;;;;;;;6.72;4.28;;;;;;;6.48;100.00;93849.06;5057357;28;20538;-73
2023/10/12 03:53:37;;;;;;;7.82;4.50;;;;;;;6.44;100.00;93840.94;5060726;28;20967;-73
2023/10/12 03:56:09;;;;;;;7.10;4.75;;;;;;;6.36;100.00;93835.88;5066619;28;20051;-73
2023/10/12 03:58:45;;;;;;;5.65;4.13;;;;;;;6.35;100.00;93844.50;5067060;28;20084;-73
2023/10/12 04:01:13;;;;;;;7.30;4.85;;;;;;;6.21;100.00;93825.59;5059570;28;20048;-73
2023/10/12 04:03:41;;;;;;;8.43;5.85;;;;;;;6.26;100.00;93836.09;5063829;28;20048;-73
2023/10/12 04:06:15;;;;;;;8.88;5.40;;;;;;;6.26;100.00;93836.88;5066860;28;20869;-73
2023/10/12 04:08:51;;;;;;;8.82;5.50;;;;;;;6.27;100.00;93828.28;5067047;28;20044;-73
2023/10/12 04:14:43;;;;;;;7.22;5.45;;;;;;;6.28;100.00;93832.41;5057660;28;20052;-73
2023/10/12 04:17:19;;;;;;;11.50;6.72;;;;;;;6.31;100.00;93836.38;5060750;28;20057;-73
2023/10/12 04:20:01;;;;;;;;;;;;;;;6.35;100.00;93842.72;5064579;28;20056;-73
2023/10/12 04:22:35;;;;;;;8.52;5.50;;;;;;;6.36;100.00;93843.53;5066172;28;20007;-73
2023/10/12 04:25:12;;;;;;;9.80;5.20;;;;;;;6.20;100.00;93824.00;5061991;28;20821;-73
2023/10/12 04:27:44;;;;;;;8.18;5.43;;;;;;;6.28;100.00;93842.63;5063132;28;20040;-73
2023/10/12 04:30:28;;;;;;;11.02;6.22;;;;;;;6.29;100.00;93840.84;5058691;28;20041;-73
2023/10/12 04:32:57;;;;;;;11.32;5.78;;;;;;;6.28;100.00;93844.38;5065050;28;20496;-73
2023/10/12 04:35:44;;;;;;;9.77;5.53;;;;;;;6.23;100.00;93839.78;5066169;28;20076;-74
2023/10/12 04:38:23;;;;;;;11.13;5.32;;;;;;;6.25;100.00;93845.50;5061055;28;20094;-73
2023/10/12 04:43:33;;;;;;;10.20;5.18;;;;;;;6.25;100.00;93848.03;5063699;28;20875;-73
2023/10/12 04:46:27;;;;;;;9.20;4.88;;;;;;;6.27;100.00;93850.44;5068152;28;20044;-73
2023/10/12 04:49:36;;;;;;;11.27;5.63;;;;;;;6.09;100.00;93820.88;5069696;28;20044;-73
2023/10/12 04:52:08;;;;;;;10.60;5.32;;;;;;;6.20;100.00;93839.31;5060835;28;20072;-73
2023/10/12 04:54:36;;;;;;;13.05;6.22;;;;;;;6.04;100.00;93820.56;5067754;28;20163;-73
2023/10/12 04:57:14;;;;;;;11.13;5.70;;;;;;;6.15;100.00;93843.16;5069679;28;20633;-73
2023/10/12 04:59:51;;;;;;;11.20;5.40;;;;;;;6.15;100.00;93838.06;5067351;28;20051;-74
2023/10/12 05:02:28;;;;;;;10.07;5.65;;;;;;;6.16;100.00;93836.31;5070299;28;20489;-74
2023/10/12 05:07:53;;;;;;;16.42;4.68;;;;;;;6.19;100.00;93841.06;5068835;28;20056;-73
2023/10/12 05:10:26;;;;;;;11.27;5.63;;;;;;;6.22;100.00;93850.94;5081881;28;20078;-73
2023/10/12 05:12:57;;;;;;;10.63;5.22;;;;;;;6.26;100.00;93841.19;5079231;28;20194;-73
2023/10/12 05:15:36;;;;;;;15.55;6.30;;;;;;;6.20;100.00;93840.09;5069723;28;20066;-73
2023/10/12 05:18:05;;;;;;;10.50;5.43;;;;;;;6.25;100.00;93845.50;5072934;28;20060;-73
2023/10/12 05:20:32;;;;;;;11.52;6.32;;;;;;;6.28;100.00;93850.28;5075106;28;20121;-73
2023/10/12 05:22:59;;;;;;;9.55;5.90;;;;;;;6.29;100.00;93853.59;5072796;28;20060;-73
2023/10/12 05:26:07;;;;;;;9.20;6.05;;;;;;;6.28;100.00;93852.03;5071080;28;20052;-73
2023/10/12 05:28:36;;;;;;;14.27;5.80;;;;;;;6.40;100.00;93862.66;5069922;28;20040;-73
2023/10/12 05:31:13;;;;;;;9.93;5.40;;;;;;;6.43;100.00;93861.53;5079514;28;20049;-73
2023/10/12 05:33:43;;;;;;;8.98;5.75;;;;;;;6.48;100.00;93862.59;5088265;28;20510;-74
2023/10/12 05:36:11;;;;;;;8.48;5.80;;;;;;;6.58;100.00;93864.16;5076108;28;20044;-73
2023/10/12 05:38:38;;;;;;;12.07;5.85;;;;;;;6.67;100.00;93874.16;5070477;28;20052;-73
2023/10/12 05:41:08;;;;;;;11.02;6.53;;;;;;;6.68;100.00;93872.41;5067088;28;20048;-73
2023/10/12 05:43:36;;;;;;;10.80;5.78;;;;;;;6.74;100.00;93869.16;5078597;28;20044;-73
2023/10/12 05:46:09;;;;;;;14.70;6.22;;;;;;;6.75;100.00;93862.31;5074955;28;20401;-73
2023/10/12 05:48:41;;;;;;;12.13;6.45;;;;;;;6.91;100.00;93869.06;5082008;28;20076;-73
2023/10/12 05:51:10;;;;;;;13.43;6.65;;;;;;;7.04;100.00;93873.59;5074893;28;20112;-73
2023/10/12 05:53:37;;;;;;;11.70;6.90;;;;;;;7.09;100.00;93881.56;5080303;28;20044;-73
2023/10/12 05:56:05;;;;;;;10.65;6.78;;;;;;;7.12;100.00;93881.19;5079927;28;20119;-73
2023/10/12 05:58:34;;;;;;;13.60;7.85;;;;;;;7.16;100.00;93876.53;5077055;28;20516;-73
2023/10/12 06:01:08;;;;;;;13.43;7.22;;;;;;;7.18;100.00;93877.16;5087118;28;20127;-73
2023/10/12 06:03:39;;;;;;;12.40;7.43;;;;;;;7.34;100.00;93878.78;5086995;28;20048;-73
2023/10/12 06:06:08;;;;;;;8.55;6.53;;;;;;;7.39;100.00;93875.72;5066070;28;20730;-73
2023/10/12 06:08:37;;;;;;;11.73;6.75;;;;;;;7.44;100.00;93873.44;5079058;28;20105;-73
2023/10/12 06:11:07;;;;;;;10.98;7.03;;;;;;;7.55;100.00;93885.00;5087932;28;20048;-73
2023/10/12 06:13:41;;;;;;;12.95;6.38;;;;;;;7.68;100.00;93879.31;5077401;28;20439;-73
2023/10/12 06:16:14;;;;;;;11.57;6.78;;;;;;;7.86;100.00;93878.94;5072667;28;20492;-74
2023/10/12 06:18:44;;;;;;;10.48;7.15;;;;;;;7.99;100.00;93880.91;5072167;28;20204;-74
2023/10/12 06:21:17;;;;;;;13.55;7.38;;;;;;;8.16;100.00;93881.50;5065755;28;20050;-74
2023/10/12 06:23:49;;;;;;;9.00;6.63;;;;;;;8.28;100.00;93879.28;5087769;28;20044;-73
2023/10/12 06:26:28;;;;;;;10.02;6.75;;;;;;;8.47;100.00;93875.38;5087413;28;20070;-73
2023/10/12 06:28:56;;;;;;;13.93;6.63;;;;;;;8.53;100.00;93864.44;5080450;28;20724;-74
2023/10/12 06:31:25;;;;;;;11.45;7.07;;;;;;;8.81;100.00;93878.31;5075667;28;20613;-74
2023/10/12 06:33:55;;;;;;;11.18;6.85;;;;;;;8.98;100.00;93878.88;5067727;28;20155;-74
2023/10/12 06:36:36;;;;;;;11.48;6.60;;;;;;;9.11;100.00;93870.50;5079045;28;20048;-74
2023/10/12 06:42:08;;;;;;;12.57;6.55;;;;;;;9.54;100.00;93877.34;5063777;28;20049;-74
2023/10/12 06:44:34;;;;;;;13.27;6.93;;;;;;;9.68;100.00;93862.84;5068663;28;21107;-74
2023/10/12 06:47:23;;;;;;;11.50;6.30;;;;;;;9.87;100.00;93870.88;5071905;28;20139;-74
2023/10/12 06:49:51;;;;;;;15.45;7.43;;;;;;;9.95;100.00;93875.84;5066053;28;20143;-74
2023/10/12 06:52:19;;;;;;;18.30;8.45;;;;;;;10.05;100.00;93867.03;5064003;28;20500;-74
2023/10/12 06:54:49;;;;;;;22.27;9.50;;;;;;;10.06;100.00;93856.56;5077911;28;20091;-74
2023/10/12 06:57:36;;;;;;;12.93;9.25;;;;;;;10.22;100.00;93870.06;5087249;28;20133;-74
2023/10/12 07:00:33;;;;;;;15.75;8.88;;;;;;;10.32;100.00;93873.06;5071929;28;20052;-74
2023/10/12 07:03:00;;;;;;;13.80;7.80;;;;;;;10.40;100.00;93874.69;5077050;28;20052;-74
2023/10/12 07:05:33;;;;;;;13.80;7.25;;;;;;;10.52;100.00;93878.31;5068988;28;20048;-74
2023/10/12 07:08:02;;;;;;;19.38;8.63;;;;;;;10.67;100.00;93874.81;5076706;28;20049;-75
2023/10/12 07:10:29;;;;;;;21.25;8.18;;;;;;;10.81;100.00;93871.28;5075486;28;20134;-74
2023/10/12 07:13:00;;;;;;;12.25;7.03;;;;;;;11.03;100.00;93878.03;5077288;28;20048;-74
2023/10/12 07:15:33;;;;;;;16.17;7.43;;;;;;;11.16;98.41;93875.47;5068413;28;20060;-75
2023/10/12 07:18:06;;;;;;;13.35;6.85;;;;;;;11.35;97.64;93870.56;5069637;28;20060;-74
2023/10/12 07:20:46;;;;;;;15.48;7.63;;;;;;;11.42;97.34;93879.06;5068125;28;20057;-74
2023/10/12 07:23:16;;;;;;;20.35;8.65;;;;;;;11.58;97.61;93880.44;5068449;28;20415;-75
2023/10/12 07:25:45;;;;;;;17.90;8.77;;;;;;;11.68;96.51;93877.47;5063143;28;20054;-74
2023/10/12 07:28:18;;;;;;;17.25;8.80;;;;;;;11.80;96.56;93872.50;5064862;28;20063;-74
2023/10/12 07:31:05;;;;;;;21.23;8.50;;;;;;;12.01;95.99;93879.22;5081477;28;20052;-74
2023/10/12 07:33:32;;;;;;;19.45;8.77;;;;;;;12.01;95.91;93879.22;5062125;28;20059;-74
2023/10/12 07:36:17;;;;;;;22.15;8.63;;;;;;;12.23;95.97;93876.38;5074386;28;20051;-75
2023/10/12 07:38:45;;;;;;;18.17;8.20;;;;;;;12.40;94.86;93876.75;5062589;28;20141;-74
2023/10/12 07:41:12;;;;;;;21.08;7.97;;;;;;;12.64;95.46;93873.69;5071320;28;20052;-74
2023/10/12 07:43:40;;;;;;;16.30;7.97;;;;;;;12.85;94.65;93869.19;5063594;28;20055;-74
2023/10/12 07:46:13;;;;;;;15.43;7.75;;;;;;;13.06;92.24;93868.88;5067766;28;20044;-74
2023/10/12 07:48:44;;;;;;;16.13;6.82;;;;;;;13.20;91.02;93861.06;5063843;28;20044;-74
2023/10/12 07:51:19;;;;;;;14.93;6.63;;;;;;;13.53;91.05;93861.81;5068576;28;20759;-74
2023/10/12 07:53:49;;;;;;;15.15;6.57;;;;;;;13.74;88.25;93864.00;5075962;28;20122;-74
2023/10/12 07:56:16;;;;;;;24.23;7.93;;;;;;;13.73;88.41;93859.06;5074146;28;20059;-74
2023/10/12 07:58:44;;;;;;;19.42;7.18;;;;;;;13.81;88.00;93863.16;5065398;28;20662;-74
2023/10/12 08:01:39;;;;;;;22.50;7.45;;;;;;;13.84;88.31;93862.75;5068222;28;20055;-74
2023/10/12 08:04:19;;;;;;;22.92;7.53;;;;;;;14.02;89.36;93864.53;5065058;28;20047;-74
2023/10/12 08:06:48;;;;;;;18.85;8.07;;;;;;;14.30;88.11;93861.47;5069531;28;20052;-73
2023/10/12 08:09:33;;;;;;;21.02;8.52;;;;;;;14.56;87.78;93854.41;5067487;28;20052;-74
2023/10/12 08:12:23;;;;;;;18.73;6.87;;;;;;;14.79;86.02;93852.94;5067952;28;20059;-75
2023/10/12 08:14:47;;;;;;;17.70;6.95;;;;;;;15.01;85.36;93854.25;5074147;28;20137;-75
2023/10/12 08:17:29;;;;;;;18.85;8.13;;;;;;;15.27;85.56;93844.53;5066895;28;20095;-75
2023/10/12 08:19:57;;;;;;;20.17;7.75;;;;;;;15.53;83.77;93850.28;5071898;28;20045;-75
2023/10/12 08:22:26;;;;;;;19.45;6.28;;;;;;;15.80;83.37;93855.81;5073223;28;20193;-75
2023/10/12 08:24:56;;;;;;;17.95;6.70;;;;;;;15.92;81.26;93848.00;5071312;28;20044;-75
2023/10/12 08:27:24;;;;;;;18.05;7.40;;;;;;;15.94;81.75;93825.31;5071206;28;20040;-75
2023/10/12 08:32:35;;;;;;;17.50;7.13;;;;;;;16.46;81.92;93836.69;5077228;28;20529;-75
2023/10/12 08:35:10;;;;;;;18.25;6.57;;;;;;;16.76;81.40;93824.50;5070263;28;20055;-74
2023/10/12 08:38:09;;;;;;;14.75;6.55;;;;;;;17.06;78.36;93831.25;5071271;28;20496;-75
2023/10/12 08:40:30;;;;;;;12.90;6.80;;;;;;;17.12;76.86;93826.94;5069648;28;20051;-75
2023/10/12 08:42:58;;;;;;;16.83;6.72;;;;;;;17.28;77.31;93820.97;5071410;28;20044;-75
2023/10/12 08:45:26;;;;;;;17.15;5.50;;;;;;;17.21;76.66;93800.34;5077697;28;20087;-75
2023/10/12 08:47:54;;;;;;;23.45;6.50;;;;;;;17.43;76.25;93817.03;5075973;28;20052;-75
2023/10/12 08:53:09;;;;;;;;;;;;;;;17.79;73.99;93814.13;5072292;28;20055;-75
2023/10/12 08:55:37;;;;;;;13.02;6.15;;;;;;;17.47;74.62;93812.94;5073392;28;20395;-75
2023/10/12 08:58:15;;;;;;;15.20;5.90;;;;;;;17.25;76.18;93800.66;5071305;28;20091;-75
2023/10/12 09:00:44;;;;;;;13.65;6.18;;;;;;;17.28;75.96;93797.59;5074826;28;20131;-75
2023/10/12 09:03:27;;;;;;;20.13;6.35;;;;;;;17.53;76.61;93790.44;5070836;28;20110;-75
2023/10/12 09:05:58;;;;;;;12.48;5.72;;;;;;;17.62;74.10;93800.16;5071960;28;20052;-75
2023/10/12 09:11:14;;;;;;;14.38;5.03;;;;;;;17.81;73.44;93796.50;5069656;28;20139;-75
2023/10/12 09:13:46;;;;;;;12.30;5.18;;;;;;;17.95;72.86;93802.16;5077332;28;20094;-75
2023/10/12 09:16:15;;;;;;;13.73;5.35;;;;;;;18.17;73.01;93796.97;5074252;28;20061;-75
2023/10/12 09:18:46;;;;;;;15.57;6.03;;;;;;;18.47;70.83;93790.53;5072188;28;20055;-75
2023/10/12 09:24:14;;;;;;;13.90;4.70;;;;;;;19.03;71.08;93784.28;5085061;28;20048;-75
2023/10/12 09:26:49;;;;;;;18.40;4.95;;;;;;;19.26;70.23;93760.78;5083959;28;20515;-75
2023/10/12 09:29:23;;;;;;;16.17;4.70;;;;;;;19.67;68.41;93774.03;5073594;28;20139;-75
2023/10/12 09:32:15;;;;;;;13.65;5.53;;;;;;;19.63;66.39;93781.59;5069992;28;20040;-75
2023/10/12 09:34:44;;;;;;;11.95;5.15;;;;;;;19.85;67.37;93779.88;5068972;28;20048;-75
2023/10/12 09:37:18;;;;;;;12.57;4.72;;;;;;;19.97;63.83;93764.06;5076800;28;20041;-75
2023/10/12 09:39:47;;;;;;;13.93;4.45;;;;;;;20.29;63.94;93769.13;5068555;28;20056;-75
2023/10/12 09:42:27;;;;;;;13.05;5.18;;;;;;;20.28;65.10;93764.94;5075812;28;20143;-75
2023/10/12 09:45:01;;;;;;;13.55;4.80;;;;;;;20.32;63.04;93764.44;5085007;28;20056;-75
2023/10/12 09:47:43;;;;;;;12.55;5.20;;;;;;;20.33;64.12;93763.41;5072591;28;20052;-75
2023/10/12 09:50:14;;;;;;;12.20;4.55;;;;;;;20.37;63.08;93756.63;5073925;28;20507;-75
2023/10/12 09:52:47;;;;;;;12.20;4.50;;;;;;;20.30;62.97;93751.66;5068883;28;20128;-76
2023/10/12 09:55:25;;;;;;;19.88;5.25;;;;;;;20.24;62.33;93752.69;5070334;28;20067;-75
2023/10/12 09:57:53;;;;;;;8.93;3.65;;;;;;;20.11;62.54;93749.50;5075064;28;20055;-75
2023/10/12 10:00:28;;;;;;;9.90;4.43;;;;;;;20.24;62.57;93744.84;5074881;28;20052;-75
2023/10/12 10:02:59;;;;;;;11.80;4.30;;;;;;;20.21;61.82;93745.34;5071796;28;20066;-75
2023/10/12 10:05:51;;;;;;;9.43;4.35;;;;;;;20.25;62.00;93733.38;5077761;28;20055;-75
2023/10/12 10:08:18;;;;;;;12.52;4.07;;;;;;;20.22;61.92;93745.09;5076404;28;20048;-75
2023/10/12 10:10:48;;;;;;;12.57;4.45;;;;;;;20.39;61.10;93737.06;5072573;28;20072;-75
2023/10/12 10:13:46;;;;;;;8.15;4.10;;;;;;;20.68;62.80;93731.34;5073026;28;20040;-75
2023/10/12 10:16:17;;;;;;;6.35;3.65;;;;;;;21.01;61.17;93738.19;5069452;28;20496;-75
2023/10/12 10:18:46;;;;;;;7.10;3.88;;;;;;;21.23;60.06;93723.03;5069206;28;20170;-75
2023/10/12 10:21:18;;;;;;;11.32;5.30;;;;;;;21.37;58.34;93727.69;5069049;28;20166;-75
2023/10/12 10:23:49;;;;;;;12.85;5.05;;;;;;;21.53;57.57;93728.47;5070651;28;20048;-76
2023/10/12 10:26:23;;;;;;;9.63;4.93;;;;;;;21.75;58.40;93717.69;5072048;28;20059;-75
2023/10/12 10:29:04;;;;;;;9.05;4.18;;;;;;;21.82;56.40;93709.56;5070362;28;20412;-75
2023/10/12 10:31:36;;;;;;;11.52;4.78;;;;;;;22.02;57.45;93708.69;5078509;28;20052;-75
2023/10/12 10:34:05;;;;;;;6.40;3.55;;;;;;;22.04;54.92;93711.03;5086160;28;20614;-75
2023/10/12 10:36:35;;;;;;;6.45;3.60;;;;;;;22.03;54.87;93710.25;5078591;28;20045;-75
2023/10/12 10:39:08;;;;;;;10.23;3.70;;;;;;;22.21;55.15;93707.28;5075326;28;20063;-75
2023/10/12 10:41:46;;;;;;;9.70;4.05;;;;;;;;;;5067691;28;20135;-75
2023/10/12 10:44:15;;;;;;;10.50;5.20;;;;;;;21.72;55.85;93701.75;5068731;28;20090;-75
2023/10/12 10:46:45;;;;;;;9.57;4.85;;;;;;;21.84;56.21;93691.00;5071702;28;20068;-75
2023/10/12 10:49:15;;;;;;;10.75;4.88;;;;;;;21.97;55.62;93682.56;5065120;28;20044;-75
2023/10/12 10:51:48;;;;;;;10.48;4.70;;;;;;;22.15;54.21;93693.44;5068904;28;20044;-75
2023/10/12 10:54:19;;;;;;;10.80;4.25;;;;;;;22.20;54.37;93687.38;5064062;28;20091;-75
2023/10/12 10:56:49;;;;;;;7.63;4.32;;;;;;;22.11;54.16;93661.81;5068750;28;20110;-75
2023/10/12 10:59:18;;;;;;;7.88;4.35;;;;;;;22.29;54.31;93675.31;5064947;28;20493;-75
2023/10/12 11:01:48;;;;;;;12.23;3.63;;;;;;;21.93;53.45;93644.13;5074148;28;20106;-75
2023/10/12 11:04:36;;;;;;;7.80;3.72;;;;;;;21.97;53.54;93660.84;5086832;28;20052;-75
2023/10/12 11:07:04;;;;;;;8.30;3.65;;;;;;;22.28;54.17;93664.03;5080976;28;20064;-75
2023/10/12 11:09:54;;;;;;;8.13;4.50;;;;;;;22.40;52.91;93665.56;5072703;28;20044;-74
2023/10/12 11:12:22;;;;;;;7.63;3.47;;;;;;;22.75;55.31;93655.91;5063124;28;20441;-75
2023/10/12 11:14:58;;;;;;;13.02;5.22;;;;;;;22.18;52.34;93653.66;5086310;28;20548;-75
2023/10/12 11:17:26;;;;;;;11.70;3.97;;;;;;;22.05;52.84;93639.34;5078992;28;20139;-75
2023/10/12 11:19:53;;;;;;;10.00;4.40;;;;;;;21.96;53.17;93644.38;5069381;28;20102;-75
2023/10/12 11:22:20;;;;;;;11.07;4.75;;;;;;;21.97;53.26;93643.31;5071384;28;20074;-75
2023/10/12 11:24:48;;;;;;;8.00;3.85;;;;;;;22.31;55.48;93639.16;5069472;28;20055;-76
2023/10/12 11:27:32;;;;;;;10.85;3.50;;;;;;;22.64;50.54;93641.31;5068717;28;20044;-75
2023/10/12 11:30:05;;;;;;;9.38;3.97;;;;;;;22.86;52.61;93627.00;5071145;28;20523;-76
2023/10/12 11:32:33;;;;;;;8.20;2.83;;;;;;;23.08;51.46;93631.75;5070435;28;20056;-76
2023/10/12 11:35:00;;;;;;;7.97;3.75;;;;;;;23.29;47.17;93629.69;5072822;28;20053;-75
2023/10/12 11:37:29;;;;;;;8.57;3.65;;;;;;;23.42;49.95;93619.63;5070196;28;20708;-76
2023/10/12 11:39:57;;;;;;;7.43;2.38;;;;;;;23.59;48.52;93624.41;5081305;28;20136;-75
2023/10/12 11:42:24;;;;;;;3.47;2.25;;;;;;;23.73;46.42;93625.28;5065840;28;20041;-75
2023/10/12 11:44:52;;;;;;;4.95;2.53;;;;;;;23.67;46.54;93618.53;5069358;28;22651;-75
2023/10/12 11:47:37;;;;;;;6.57;2.92;;;;;;;23.74;45.42;93613.72;5062043;28;20036;-75
2023/10/12 11:50:09;;;;;;;9.90;3.35;;;;;;;23.82;48.08;93595.78;5065049;28;20497;-75
2023/10/12 11:52:37;;;;;;;5.65;2.90;;;;;;;24.01;47.99;93608.91;5071462;28;20040;-75
2023/10/12 11:55:06;;;;;;;4.65;2.80;;;;;;;24.20;47.66;93603.66;5061313;28;20047;-76
2023/10/12 11:57:33;;;;;;;4.22;2.25;;;;;;;24.38;47.13;93596.84;5067296;28;20052;-75
2023/10/12 12:00:06;;;;;;;4.20;2.50;;;;;;;24.55;46.18;93598.94;5067653;28;20056;-75
2023/10/12 12:02:35;;;;;;;4.57;2.28;;;;;;;24.61;46.02;93593.56;5068262;28;20048;-75
2023/10/12 12:05:04;;;;;;;4.63;2.45;;;;;;;24.69;44.42;93593.72;5068353;28;20398;-76
2023/10/12 12:07:30;;;;;;;12.40;3.58;;;;;;;24.80;44.37;93589.06;5068353;28;20059;-75
2023/10/12 12:10:01;;;;;;;9.63;3.03;;;;;;;24.29;42.78;93588.84;5068669;28;20056;-75
2023/10/12 12:12:28;;;;;;;8.48;3.78;;;;;;;24.31;44.23;93585.94;5070551;28;20056;-75
2023/10/12 12:14:54;;;;;;;7.25;2.78;;;;;;;24.50;44.60;93591.16;5068830;28;20052;-75
2023/10/12 12:17:25;;;;;;;7.85;2.33;;;;;;;24.50;44.14;93583.28;5068462;28;20523;-75
2023/10/12 12:19:52;;;;;;;3.33;1.90;;;;;;;24.68;44.88;93579.00;5067617;28;20113;-75
2023/10/12 12:22:22;;;;;;;4.03;1.95;;;;;;;24.67;43.96;93579.31;5072103;28;20501;-75